createdAt,value
2023-05-20T00:01:22.809Z,0.70
2023-05-20T00:03:56.167Z,0.88
2023-05-20T00:06:28.753Z,0.65
2023-05-20T00:09:01.988Z,0.30
2023-05-20T00:11:34.814Z,0.17
2023-05-20T00:14:09.564Z,0.20
2023-05-20T00:16:42.199Z,0.32
2023-05-20T00:19:15.178Z,0.50
2023-05-20T00:21:47.788Z,0.97
2023-05-20T00:24:20.791Z,0.52
2023-05-20T00:26:53.973Z,0.73
2023-05-20T00:29:29.058Z,0.52
2023-05-20T00:32:02.480Z,0.40
2023-05-20T00:34:36.216Z,0.60
2023-05-20T00:37:08.841Z,0.30
2023-05-20T00:39:41.791Z,0.95
2023-05-20T00:42:20.685Z,0.40
2023-05-20T00:44:56.616Z,0.75
2023-05-20T00:47:32.889Z,0.70
2023-05-20T00:50:07.956Z,0.73
2023-05-20T00:52:41.796Z,0.40
2023-05-20T00:55:15.177Z,0.85
2023-05-20T00:57:48.842Z,0.30
2023-05-20T01:00:23.313Z,0.30
2023-05-20T01:02:57.562Z,0.40
2023-05-20T01:05:30.457Z,0.30
2023-05-20T01:08:03.900Z,0.30
2023-05-20T01:10:39.520Z,0.20
2023-05-20T01:13:18.280Z,0.50
2023-05-20T01:15:56.131Z,0.38
2023-05-20T01:18:33.048Z,0.73
2023-05-20T01:21:11.117Z,0.40
2023-05-20T01:23:46.105Z,0.10
2023-05-20T01:26:19.719Z,0.30
2023-05-20T01:28:53.247Z,0.52
2023-05-20T01:31:31.767Z,0.13
2023-05-20T01:34:06.048Z,0.40
2023-05-20T01:36:39.906Z,0.40
2023-05-20T01:39:14.796Z,0.57
2023-05-20T01:41:48.953Z,0.50
2023-05-20T01:44:22.312Z,0.50
2023-05-20T01:46:55.005Z,0.45
2023-05-20T01:49:27.868Z,0.52
2023-05-20T01:52:00.606Z,0.50
2023-05-20T01:54:37.052Z,0.40
2023-05-20T01:57:09.850Z,0.20
2023-05-20T01:59:43.276Z,0.60
2023-05-20T02:02:16.206Z,0.25
2023-05-20T02:04:51.981Z,0.43
2023-05-20T02:07:24.856Z,0.50
2023-05-20T02:09:59.928Z,0.30
2023-05-20T02:12:41.136Z,0.35
2023-05-20T02:15:14.457Z,0.28
2023-05-20T02:17:47.927Z,0.20
2023-05-20T02:20:21.079Z,0.40
2023-05-20T02:22:53.966Z,0.40
2023-05-20T02:25:28.104Z,0.63
2023-05-20T02:28:00.981Z,0.40
2023-05-20T02:30:33.890Z,0.30
2023-05-20T02:33:07.318Z,0.88
2023-05-20T02:35:40.133Z,0.40
2023-05-20T02:38:13.628Z,0.30
2023-05-20T02:40:47.854Z,0.82
2023-05-20T02:43:22.403Z,0.40
2023-05-20T02:45:55.317Z,0.40
2023-05-20T02:48:27.883Z,0.20
2023-05-20T02:51:00.915Z,0.70
2023-05-20T02:53:33.892Z,0.30
2023-05-20T02:56:08.938Z,0.17
2023-05-20T02:58:42.225Z,0.68
2023-05-20T03:01:15.263Z,0.30
2023-05-20T03:03:48.153Z,0.10
2023-05-20T03:06:21.385Z,0.52
2023-05-20T03:08:55.549Z,0.20
2023-05-20T03:11:30.202Z,0.30
2023-05-20T03:14:02.784Z,0.20
2023-05-20T03:16:38.236Z,0.30
2023-05-20T03:19:11.571Z,0.30
2023-05-20T03:21:44.449Z,0.37
2023-05-20T03:24:18.706Z,0.45
2023-05-20T03:26:54.637Z,0.30
2023-05-20T03:29:27.239Z,0.50
2023-05-20T03:32:00.440Z,0.25
2023-05-20T03:34:33.174Z,1.03
2023-05-20T03:37:07.326Z,0.20
2023-05-20T03:39:39.994Z,0.20
2023-05-20T03:42:14.169Z,0.32
2023-05-20T03:44:47.652Z,0.30
2023-05-20T03:47:21.888Z,0.30
2023-05-20T03:49:56.095Z,0.30
2023-05-20T03:52:28.792Z,0.20
2023-05-20T03:55:02.521Z,0.50
2023-05-20T03:57:38.604Z,0.10
2023-05-20T04:00:14.908Z,0.10
2023-05-20T04:02:50.591Z,0.10
2023-05-20T04:05:25.334Z,0.28
2023-05-20T04:07:59.602Z,0.20
2023-05-20T04:10:33.958Z,0.30
2023-05-20T04:13:08.206Z,0.53
2023-05-20T04:15:41.613Z,0.20
2023-05-20T04:18:15.136Z,0.10
2023-05-20T04:20:48.893Z,0.10
2023-05-20T04:23:23.183Z,0.40
2023-05-20T04:25:55.803Z,0.27
2023-05-20T04:28:31.993Z,0.20
2023-05-20T04:31:06.055Z,0.30
2023-05-20T04:33:41.899Z,0.30
2023-05-20T04:36:16.682Z,0.10
2023-05-20T04:38:50.437Z,0.40
2023-05-20T04:41:24.231Z,0.00
2023-05-20T04:44:00.332Z,0.17
2023-05-20T04:46:34.125Z,0.10
2023-05-20T04:49:08.036Z,0.10
2023-05-20T04:51:42.034Z,0.50
2023-05-20T04:54:15.265Z,0.13
2023-05-20T04:56:47.954Z,0.15
2023-05-20T04:59:22.268Z,0.35
2023-05-20T05:01:54.859Z,0.10
2023-05-20T05:04:28.862Z,0.10
2023-05-20T05:07:02.707Z,0.20
2023-05-20T05:09:35.644Z,0.20
2023-05-20T05:12:08.455Z,0.40
2023-05-20T05:14:42.490Z,0.10
2023-05-20T05:17:15.648Z,0.27
2023-05-20T05:19:49.095Z,0.10
2023-05-20T05:22:21.693Z,0.20
2023-05-20T05:24:56.299Z,0.20
2023-05-20T05:27:28.944Z,0.20
2023-05-20T05:30:04.041Z,0.10
2023-05-20T05:32:39.260Z,0.25
2023-05-20T05:35:12.676Z,0.17
2023-05-20T05:37:45.975Z,0.20
2023-05-20T05:40:19.578Z,0.20
2023-05-20T05:42:53.482Z,0.20
2023-05-20T05:45:29.229Z,0.15
2023-05-20T05:48:02.191Z,0.25
2023-05-20T05:50:35.446Z,0.47
2023-05-20T05:53:08.239Z,0.40
2023-05-20T05:55:42.837Z,0.23
2023-05-20T05:58:15.806Z,0.30
2023-05-20T06:00:53.743Z,0.40
2023-05-20T06:03:26.785Z,0.15
2023-05-20T06:06:00.220Z,0.20
2023-05-20T06:08:32.892Z,0.20
2023-05-20T06:11:06.133Z,0.10
2023-05-20T06:13:38.764Z,0.43
2023-05-20T06:16:13.529Z,0.20
2023-05-20T06:18:46.963Z,0.45
2023-05-20T06:21:20.221Z,0.30
2023-05-20T06:23:52.811Z,0.55
2023-05-20T06:26:26.685Z,0.30
2023-05-20T06:28:59.314Z,0.30
2023-05-20T06:31:34.250Z,0.55
2023-05-20T06:34:06.860Z,0.40
2023-05-20T06:36:40.143Z,0.40
2023-05-20T06:39:13.084Z,0.47
2023-05-20T06:41:48.889Z,0.40
2023-05-20T06:44:33.397Z,1.05
2023-05-20T06:47:26.101Z,0.50
2023-05-20T06:49:59.577Z,0.80
2023-05-20T06:52:32.541Z,0.30
2023-05-20T06:55:06.902Z,0.68
2023-05-20T06:57:41.329Z,0.70
2023-05-20T07:00:14.841Z,2.97
2023-05-20T07:02:49.846Z,0.50
2023-05-20T07:05:24.806Z,0.45
2023-05-20T07:07:57.959Z,0.60
2023-05-20T07:10:31.728Z,0.50
2023-05-20T07:13:04.730Z,0.33
2023-05-20T07:15:37.425Z,0.70
2023-05-20T07:18:12.355Z,0.73
2023-05-20T07:20:45.901Z,0.50
2023-05-20T07:23:31.463Z,0.77
2023-05-20T07:26:04.925Z,0.93
2023-05-20T07:28:38.102Z,0.47
2023-05-20T07:31:11.860Z,0.43
2023-05-20T07:33:50.204Z,0.40
2023-05-20T07:36:22.886Z,0.85
2023-05-20T07:39:04.216Z,0.60
2023-05-20T07:41:42.347Z,0.25
2023-05-20T07:44:15.603Z,0.47
2023-05-20T07:46:53.185Z,0.63
2023-05-20T07:49:27.710Z,0.50
2023-05-20T07:52:02.992Z,0.40
2023-05-20T07:54:36.813Z,0.50
2023-05-20T07:57:10.381Z,1.80
2023-05-20T07:59:45.148Z,0.30
2023-05-20T08:02:19.104Z,0.93
2023-05-20T08:04:54.022Z,0.88
2023-05-20T08:07:27.274Z,0.40
2023-05-20T08:10:01.667Z,0.37
2023-05-20T08:12:37.905Z,0.50
2023-05-20T08:15:11.867Z,0.38
2023-05-20T08:17:48.360Z,0.50
2023-05-20T08:20:22.706Z,0.50
2023-05-20T08:22:56.361Z,0.40
2023-05-20T08:25:30.292Z,0.30
2023-05-20T08:28:05.772Z,0.50
2023-05-20T08:30:41.972Z,0.25
2023-05-20T08:33:15.531Z,0.30
2023-05-20T08:35:49.690Z,0.30
2023-05-20T08:38:23.141Z,0.20
2023-05-20T08:40:58.022Z,0.38
2023-05-20T08:43:32.951Z,0.40
2023-05-20T08:46:07.756Z,0.30
2023-05-20T08:48:42.515Z,0.40
2023-05-20T08:51:17.958Z,0.30
2023-05-20T08:53:51.698Z,0.20
2023-05-20T08:56:30.087Z,0.50
2023-05-20T08:59:07.110Z,0.40
2023-05-20T09:01:44.282Z,0.30
2023-05-20T09:04:18.230Z,0.40
2023-05-20T09:06:52.228Z,0.65
2023-05-20T09:09:25.564Z,0.45
2023-05-20T09:11:59.038Z,0.43
2023-05-20T09:14:32.661Z,0.50
2023-05-20T09:17:08.556Z,0.40
2023-05-20T09:19:41.780Z,0.70
2023-05-20T09:22:16.588Z,0.65
2023-05-20T09:24:49.325Z,0.43
2023-05-20T09:27:22.816Z,0.60
2023-05-20T09:29:55.657Z,0.98
2023-05-20T09:32:29.511Z,0.50
2023-05-20T09:35:03.183Z,0.50
2023-05-20T09:37:41.267Z,0.43
2023-05-20T09:40:15.844Z,0.40
2023-05-20T09:42:54.902Z,0.50
2023-05-20T09:45:28.171Z,0.50
2023-05-20T09:48:02.928Z,0.40
2023-05-20T09:50:36.773Z,1.52
2023-05-20T09:53:12.807Z,0.63
2023-05-20T09:55:46.626Z,0.43
2023-05-20T09:58:20.686Z,0.43
2023-05-20T10:00:54.166Z,0.52
2023-05-20T10:03:29.697Z,0.45
2023-05-20T10:06:25.882Z,0.70
2023-05-20T10:09:25.354Z,0.73
2023-05-20T10:12:12.452Z,0.47
2023-05-20T10:14:56.252Z,0.35
2023-05-20T10:17:40.611Z,0.73
2023-05-20T10:20:14.275Z,0.30
2023-05-20T10:22:56.661Z,0.30
2023-05-20T10:25:31.885Z,0.60
2023-05-20T10:28:08.178Z,0.50
2023-05-20T10:30:51.140Z,0.43
2023-05-20T10:33:26.650Z,0.50
2023-05-20T10:36:00.294Z,0.30
2023-05-20T10:38:33.633Z,0.85
2023-05-20T10:41:14.444Z,0.45
2023-05-20T10:43:46.908Z,0.38
2023-05-20T10:46:32.567Z,0.50
2023-05-20T10:49:19.258Z,0.80
2023-05-20T10:51:52.901Z,0.45
2023-05-20T10:54:25.704Z,0.50
2023-05-20T10:57:00.935Z,0.77
2023-05-20T10:59:34.202Z,0.30
2023-05-20T11:02:08.512Z,0.35
2023-05-20T11:04:44.016Z,0.57
2023-05-20T11:07:26.133Z,0.77
2023-05-20T11:09:59.520Z,0.47
2023-05-20T11:12:33.911Z,6.97
2023-05-20T11:15:08.226Z,4.50
2023-05-20T11:17:53.760Z,0.85
2023-05-20T11:20:26.837Z,0.50
2023-05-20T11:23:00.032Z,0.60
2023-05-20T11:25:37.141Z,0.60
2023-05-20T11:28:15.755Z,0.85
2023-05-20T11:30:49.192Z,0.82
2023-05-20T11:33:28.027Z,0.30
2023-05-20T11:36:03.544Z,0.60
2023-05-20T11:38:38.004Z,0.60
2023-05-20T11:41:11.110Z,0.75
2023-05-20T11:43:45.660Z,0.60
2023-05-20T11:46:21.642Z,0.30
2023-05-20T11:48:55.456Z,0.68
2023-05-20T11:51:29.222Z,0.47
2023-05-20T11:54:03.072Z,0.40
2023-05-20T11:56:39.544Z,0.65
2023-05-20T11:59:15.464Z,0.40
2023-05-20T12:01:48.164Z,0.70
2023-05-20T12:04:21.239Z,0.47
2023-05-20T12:06:54.507Z,0.40
2023-05-20T12:09:27.286Z,0.90
2023-05-20T12:11:59.844Z,0.40
2023-05-20T12:14:34.216Z,0.93
2023-05-20T12:17:07.614Z,0.50
2023-05-20T12:19:41.936Z,0.70
2023-05-20T12:22:15.343Z,0.30
2023-05-20T12:24:48.144Z,0.68
2023-05-20T12:27:21.147Z,0.40
2023-05-20T12:29:55.449Z,0.60
2023-05-20T12:32:31.499Z,0.73
2023-05-20T12:35:04.582Z,0.90
2023-05-20T12:37:39.103Z,0.32
2023-05-20T12:40:13.040Z,0.47
2023-05-20T12:42:46.458Z,0.60
2023-05-20T12:45:21.158Z,0.43
2023-05-20T12:47:55.233Z,0.32
2023-05-20T12:50:28.423Z,0.82
2023-05-20T12:53:01.832Z,0.40
2023-05-20T12:55:34.546Z,0.40
2023-05-20T12:58:10.833Z,0.43
2023-05-20T13:00:45.404Z,0.38
2023-05-20T13:03:18.847Z,0.25
2023-05-20T13:05:51.848Z,0.60
2023-05-20T13:08:24.451Z,0.37
2023-05-20T13:10:57.844Z,0.80
2023-05-20T13:13:32.293Z,0.30
2023-05-20T13:16:07.204Z,0.40
2023-05-20T13:18:40.601Z,0.30
2023-05-20T13:21:13.241Z,0.57
2023-05-20T13:23:46.567Z,0.82
2023-05-20T13:26:19.472Z,0.43
2023-05-20T13:28:52.786Z,0.55
2023-05-20T13:31:27.166Z,1.15
2023-05-20T13:34:01.019Z,0.37
2023-05-20T13:36:34.206Z,0.38
2023-05-20T13:39:07.507Z,0.93
2023-05-20T13:41:40.785Z,0.10
2023-05-20T13:44:14.157Z,0.32
2023-05-20T13:46:48.181Z,0.30
2023-05-20T13:49:21.974Z,0.38
2023-05-20T13:51:54.810Z,0.50
2023-05-20T13:54:27.710Z,0.32
2023-05-20T13:57:01.596Z,0.25
2023-05-20T13:59:35.358Z,0.40
2023-05-20T14:02:09.781Z,0.25
2023-05-20T14:04:45.096Z,0.55
2023-05-20T14:07:18.132Z,0.50
2023-05-20T14:09:51.366Z,0.55
2023-05-20T14:12:24.683Z,0.50
2023-05-20T14:14:58.293Z,0.40
2023-05-20T14:17:32.308Z,0.43
2023-05-20T14:20:07.203Z,0.40
2023-05-20T14:22:40.035Z,0.30
2023-05-20T14:25:13.169Z,0.40
2023-05-20T14:27:45.971Z,0.85
2023-05-20T14:30:18.938Z,0.45
2023-05-20T14:32:53.858Z,0.28
2023-05-20T14:35:27.015Z,0.30
2023-05-20T14:37:59.911Z,0.70
2023-05-20T14:40:33.040Z,0.60
2023-05-20T14:43:05.714Z,0.40
2023-05-20T14:45:39.170Z,0.30
2023-05-20T14:48:13.238Z,0.10
2023-05-20T14:50:47.688Z,0.30
2023-05-20T14:53:22.898Z,0.28
2023-05-20T14:55:56.146Z,0.30
2023-05-20T14:58:28.769Z,0.30
2023-05-20T15:01:01.891Z,0.63
2023-05-20T15:03:36.574Z,0.40
2023-05-20T15:06:09.625Z,0.35
2023-05-20T15:08:42.584Z,0.38
2023-05-20T15:11:16.190Z,0.60
2023-05-20T15:13:48.837Z,0.50
2023-05-20T15:16:24.679Z,0.53
2023-05-20T15:18:58.719Z,0.20
2023-05-20T15:21:32.382Z,0.35
2023-05-20T15:24:05.509Z,0.70
2023-05-20T15:26:40.719Z,0.45
2023-05-20T15:29:14.373Z,0.50
2023-05-20T15:31:47.154Z,0.60
2023-05-20T15:34:21.523Z,0.20
2023-05-20T15:36:54.673Z,0.38
2023-05-20T15:39:28.998Z,0.77
2023-05-20T15:42:03.050Z,0.53
2023-05-20T15:44:36.606Z,0.50
2023-05-20T15:47:09.194Z,0.60
2023-05-20T15:49:43.613Z,0.30
2023-05-20T15:52:16.309Z,0.32
2023-05-20T15:54:49.482Z,0.43
2023-05-20T15:57:21.998Z,0.40
2023-05-20T15:59:55.335Z,0.45
2023-05-20T16:02:28.003Z,0.30
2023-05-20T16:05:03.252Z,0.65
2023-05-20T16:07:37.326Z,0.43
2023-05-20T16:10:11.256Z,0.32
2023-05-20T16:12:44.053Z,0.40
2023-05-20T16:15:17.163Z,0.70
2023-05-20T16:17:49.659Z,0.52
2023-05-20T16:20:24.290Z,0.47
2023-05-20T16:22:57.903Z,0.65
2023-05-20T16:25:30.977Z,0.50
2023-05-20T16:28:03.887Z,0.30
2023-05-20T16:30:36.974Z,0.95
2023-05-20T16:33:09.711Z,0.50
2023-05-20T16:35:44.324Z,0.40
2023-05-20T16:38:16.893Z,1.00
2023-05-20T16:40:49.709Z,1.02
2023-05-20T16:43:22.578Z,0.93
2023-05-20T16:45:55.639Z,1.10
2023-05-20T16:48:28.437Z,1.10
2023-05-20T16:51:03.199Z,1.50
2023-05-20T16:53:35.796Z,1.50
2023-05-20T16:56:09.298Z,2.40
2023-05-20T16:58:44.600Z,0.57
2023-05-20T17:01:17.797Z,0.63
2023-05-20T17:03:50.762Z,0.68
2023-05-20T17:06:25.602Z,0.73
2023-05-20T17:08:59.639Z,0.65
2023-05-20T17:11:32.712Z,0.40
2023-05-20T17:14:06.368Z,0.50
2023-05-20T17:16:39.196Z,1.10
2023-05-20T17:19:13.560Z,1.00
2023-05-20T17:21:48.523Z,0.95
2023-05-20T17:24:21.959Z,1.03
2023-05-20T17:26:55.607Z,0.60
2023-05-20T17:29:28.248Z,1.20
2023-05-20T17:32:01.075Z,1.40
2023-05-20T17:34:34.641Z,1.63
2023-05-20T17:37:08.706Z,1.03
2023-05-20T17:39:42.465Z,1.95
2023-05-20T17:42:15.741Z,1.73
2023-05-20T17:44:48.912Z,1.33
2023-05-20T17:47:21.498Z,1.42
2023-05-20T17:49:54.722Z,2.23
2023-05-20T17:52:29.159Z,1.40
2023-05-20T17:55:01.888Z,1.80
2023-05-20T17:57:39.877Z,1.20
2023-05-20T18:00:13.319Z,1.10
2023-05-20T18:02:48.383Z,1.10
2023-05-20T18:05:21.611Z,1.48
2023-05-20T18:07:56.556Z,1.00
2023-05-20T18:10:29.440Z,2.28
2023-05-20T18:13:04.672Z,2.35
2023-05-20T18:15:37.777Z,1.80
2023-05-20T18:18:11.798Z,1.75
2023-05-20T18:20:45.394Z,1.45
2023-05-20T18:23:20.113Z,0.95
2023-05-20T18:25:53.188Z,1.38
2023-05-20T18:28:26.048Z,1.80
2023-05-20T18:30:58.965Z,1.70
2023-05-20T18:33:31.999Z,2.25
2023-05-20T18:36:06.517Z,1.60
2023-05-20T18:38:41.746Z,2.25
2023-05-20T18:41:15.392Z,2.30
2023-05-20T18:43:47.955Z,3.35
2023-05-20T18:46:21.356Z,1.95
2023-05-20T18:48:54.580Z,3.28
2023-05-20T18:51:33.566Z,4.25
2023-05-20T18:54:07.847Z,7.53
2023-05-20T18:56:42.184Z,6.32
2023-05-20T18:59:14.714Z,5.05
2023-05-20T19:01:47.875Z,6.35
2023-05-20T19:04:20.867Z,3.72
2023-05-20T19:06:53.860Z,2.73
2023-05-20T19:09:28.018Z,4.28
2023-05-20T19:12:01.197Z,5.05
2023-05-20T19:14:33.929Z,7.68
2023-05-20T19:17:07.409Z,4.28
2023-05-20T19:19:40.621Z,3.87
2023-05-20T19:22:13.765Z,3.83
2023-05-20T19:24:47.958Z,5.15
2023-05-20T19:27:21.555Z,4.55
2023-05-20T19:29:54.374Z,4.80
2023-05-20T19:32:27.281Z,4.30
2023-05-20T19:34:59.865Z,7.70
2023-05-20T19:37:33.986Z,8.07
2023-05-20T19:40:09.311Z,6.57
2023-05-20T19:42:42.449Z,5.28
2023-05-20T19:45:15.557Z,3.07
2023-05-20T19:47:48.564Z,2.00
2023-05-20T19:50:21.309Z,1.98
2023-05-20T19:52:54.494Z,1.60
2023-05-20T19:55:28.553Z,1.45
2023-05-20T19:58:01.738Z,1.40
2023-05-20T20:00:36.343Z,1.55
2023-05-20T20:03:10.025Z,1.83
2023-05-20T20:05:43.001Z,1.10
2023-05-20T20:08:16.096Z,2.22
2023-05-20T20:10:50.370Z,2.67
2023-05-20T20:13:23.689Z,1.90
2023-05-20T20:15:56.322Z,2.10
2023-05-20T20:18:29.931Z,1.55
2023-05-20T20:21:06.094Z,1.77
2023-05-20T20:23:39.071Z,1.90
2023-05-20T20:26:13.946Z,1.83
2023-05-20T20:28:47.324Z,2.03
2023-05-20T20:31:20.292Z,1.83
2023-05-20T20:33:53.704Z,1.40
2023-05-20T20:36:31.922Z,2.10
2023-05-20T20:39:05.336Z,1.98
2023-05-20T20:41:40.015Z,2.60
2023-05-20T20:44:17.246Z,2.53
2023-05-20T20:46:51.361Z,1.98
2023-05-20T20:49:25.746Z,2.73
2023-05-20T20:52:00.076Z,2.55
2023-05-20T20:54:33.129Z,1.23
2023-05-20T20:57:07.861Z,1.73
2023-05-20T20:59:47.906Z,1.92
2023-05-20T21:02:21.651Z,2.00
2023-05-20T21:04:54.207Z,1.45
2023-05-20T21:07:27.388Z,1.45
2023-05-20T21:10:00.139Z,1.17
2023-05-20T21:12:34.650Z,0.80
2023-05-20T21:15:08.952Z,1.43
2023-05-20T21:17:42.365Z,1.23
2023-05-20T21:20:16.239Z,1.40
2023-05-20T21:22:49.309Z,0.90
2023-05-20T21:25:22.276Z,2.30
2023-05-20T21:27:56.822Z,1.93
2023-05-20T21:30:30.223Z,2.08
2023-05-20T21:33:02.791Z,2.00
2023-05-20T21:35:35.999Z,1.05
2023-05-20T21:38:09.405Z,1.35
2023-05-20T21:40:42.405Z,1.00
2023-05-20T21:43:16.912Z,1.15
2023-05-20T21:45:49.891Z,1.30
2023-05-20T21:48:23.063Z,0.50
2023-05-20T21:50:56.372Z,1.33
2023-05-20T21:53:29.665Z,1.10
2023-05-20T21:56:02.266Z,1.10
2023-05-20T21:58:41.388Z,2.55
2023-05-20T22:01:14.142Z,2.40
2023-05-20T22:03:50.338Z,1.80
2023-05-20T22:06:24.057Z,1.47
2023-05-20T22:08:57.222Z,1.65
2023-05-20T22:11:29.740Z,1.73
2023-05-20T22:14:05.324Z,1.33
2023-05-20T22:16:38.384Z,1.08
2023-05-20T22:19:11.082Z,1.07
2023-05-20T22:21:50.185Z,1.23
2023-05-20T22:24:24.042Z,1.13
2023-05-20T22:26:56.491Z,1.15
2023-05-20T22:29:32.722Z,0.95
2023-05-20T22:32:06.277Z,0.97
2023-05-20T22:34:39.807Z,0.85
2023-05-20T22:37:12.843Z,1.23
2023-05-20T22:39:45.857Z,0.60
2023-05-20T22:42:18.742Z,1.10
2023-05-20T22:44:52.577Z,0.90
2023-05-20T22:47:25.896Z,1.05
2023-05-20T22:50:02.656Z,1.50
2023-05-20T22:52:38.390Z,1.02
2023-05-20T22:55:12.218Z,0.88
2023-05-20T22:57:45.475Z,1.10
2023-05-20T23:00:19.552Z,0.82
2023-05-20T23:02:52.860Z,0.57
2023-05-20T23:05:25.939Z,0.80
2023-05-20T23:07:59.610Z,0.82
2023-05-20T23:10:32.189Z,1.20
2023-05-20T23:13:05.375Z,1.48
2023-05-20T23:15:41.279Z,0.70
2023-05-20T23:18:14.204Z,0.77
2023-05-20T23:20:47.819Z,1.20
2023-05-20T23:23:28.021Z,0.67
2023-05-20T23:26:05.316Z,0.70
2023-05-20T23:28:38.591Z,0.82
2023-05-20T23:31:14.873Z,0.60
2023-05-20T23:33:47.967Z,0.90
2023-05-20T23:36:20.794Z,0.40
2023-05-20T23:38:53.610Z,0.38
2023-05-20T23:41:26.683Z,0.90
2023-05-20T23:43:59.770Z,1.52
2023-05-20T23:46:34.313Z,1.05
2023-05-20T23:49:07.118Z,0.70
2023-05-20T23:51:40.225Z,0.95
2023-05-20T23:54:16.395Z,1.40
2023-05-20T23:56:50.098Z,1.35
2023-05-20T23:59:22.876Z,1.85
